This is the latest recevied weather packets stored in our database for station/object DO7CRZ-12. If no packets are shown the sender has not sent any weather packets the latest 10 day(s).
| Time | Temp. | Humidity | Pressure | Rain* | Wind** | Luminosity | Snow |
|---|---|---|---|---|---|---|---|
| 1777723640 | 30.56° C | 16% | 1021.7 hPa | 0 mm | - | 637 W/m² | - |
| 1777723036 | 28.89° C | 17% | 1021.9 hPa | 0 mm | - | 643 W/m² | - |
| 1777722449 | 30.56° C | 17% | 1021.9 hPa | 0 mm | - | 661 W/m² | - |
| 1777721846 | 30.56° C | 16% | 1022.1 hPa | 0 mm | - | 671 W/m² | - |
| 1777721243 | 31.67° C | 15% | 1022.1 hPa | 0 mm | - | 685 W/m² | - |
| 1777720640 | 31.11° C | 15% | 1022.4 hPa | 0 mm | - | 691 W/m² | - |
| 1777720037 | 32.22° C | 15% | 1022.5 hPa | 0 mm | - | 706 W/m² | - |
| 1777719449 | 31.11° C | 17% | 1022.6 hPa | 0 mm | - | 706 W/m² | - |
| 1777718847 | 30° C | 17% | 1022.9 hPa | 0 mm | - | 701 W/m² | - |
| 1777718244 | 31.11° C | 17% | 1022.9 hPa | 0 mm | - | 710 W/m² | - |
| 1777717641 | 31.11° C | 16% | 1023.1 hPa | 0 mm | - | 711 W/m² | - |
| 1777717038 | 31.67° C | 16% | 1023.1 hPa | 0 mm | - | 707 W/m² | - |
| 1777716436 | 30.56° C | 16% | 1023.3 hPa | 0 mm | - | 667 W/m² | - |
| 1777715848 | 28.89° C | 19% | 1023.4 hPa | 0 mm | - | 655 W/m² | - |
| 1777714642 | 28.33° C | 18% | 1023.5 hPa | 0 mm | - | 571 W/m² | - |
| 1777714039 | 27.78° C | 15% | 1023.6 hPa | 0 mm | - | 568 W/m² | - |
| 1777712849 | 26.67° C | 17% | 1023.9 hPa | 0 mm | - | 546 W/m² | - |
| 1777711643 | 25.56° C | 21% | 1023.9 hPa | 0 mm | - | 514 W/m² | - |
| 1777711040 | 25.56° C | 23% | 1023.9 hPa | 0 mm | - | 498 W/m² | - |
| 1777710437 | 25° C | 24% | 1024 hPa | 0 mm | - | 478 W/m² | - |
| 1777709252 | 22.22° C | 33% | 1024.2 hPa | 0 mm | - | 377 W/m² | - |
| 1777708041 | 18.89° C | 43% | 1024.3 hPa | 0 mm | - | 31 W/m² | - |
| 1777707438 | 18.33° C | 45% | 1024.3 hPa | 0 mm | - | 29 W/m² | - |
| 1777706835 | 17.78° C | 45% | 1024.4 hPa | 0 mm | - | 28 W/m² | - |
| 1777706248 | 17.22° C | 46% | 1024.3 hPa | 0 mm | - | 27 W/m² | - |
* Rain latest hour (hover to see other rain measurements)
** Current wind speed in m/s (hover to see current wind gust speed)